Kansas, Illinois
Current Conditions -  °F | °C
As of 2:15 PM on Sunday 23 Nov 2014 (Local Time) from KPRG Reporting Station
Light Rain Light Rain  
Wind Chill: 11°   Ceiling: 700
Heat Index: 11°   Visibility: 2mi
Dew Point: 11°   Wind: 13mph
Humidity: 99%   Direction: 130°SE
Pressure: 29.52"   Gusts: NA
Location:  39.55°N, 87.94°W
Report Text: KPRG 232015Z AUTO 13011KT 2SM -RA BKN007 OVC012 11/11 A2952 RMK AO2 P0001 T01070106
Loading
Personal Weather Stations






























Interactive Weather Map New forecast layout! Learn more

10-Day Weather Forecast

Advertisements
Track Severe Weather on mobile